Time,TemperatureF,DewpointF,PressureIn,WindDirection,WindDirectionDegrees,WindSpeedMPH,WindSpeedGustMPH,Humidity,HourlyPrecipIn,Conditions,Clouds,dailyrainin,SoftwareType,DateUTC
2013-06-08 00:05:00,52.7,52.0,29.74,East,84,0.0,-999.0,97,-99.99,,,0.00,weatherlink.com 1.10,2013-06-08 04:05:00,
2013-06-08 00:20:00,52.7,52.0,29.73,ENE,76,6.0,-999.0,96,-99.99,,,0.03,weatherlink.com 1.10,2013-06-08 04:20:00,
2013-06-08 00:35:00,52.7,52.0,29.72,ENE,59,2.0,-999.0,96,-99.99,,,0.05,weatherlink.com 1.10,2013-06-08 04:35:00,
2013-06-08 00:50:00,52.7,52.0,29.71,NNE,13,2.0,-999.0,97,-99.99,,,0.08,weatherlink.com 1.10,2013-06-08 04:50:00,
2013-06-08 01:05:00,52.6,52.0,29.70,NNE,30,0.0,-999.0,97,-99.99,,,0.10,weatherlink.com 1.10,2013-06-08 05:05:00,
2013-06-08 01:20:00,52.7,52.0,29.69,NE,36,0.0,-999.0,96,-99.99,,,0.11,weatherlink.com 1.10,2013-06-08 05:20:00,
2013-06-08 01:35:00,52.8,52.0,29.67,East,84,3.0,-999.0,96,-99.99,,,0.12,weatherlink.com 1.10,2013-06-08 05:35:00,
2013-06-08 01:50:00,52.8,52.0,29.67,NE,46,6.0,-999.0,96,-99.99,,,0.23,weatherlink.com 1.10,2013-06-08 05:50:00,
2013-06-08 02:05:00,52.8,52.0,29.66,ENE,63,4.0,-999.0,97,-99.99,,,0.29,weatherlink.com 1.10,2013-06-08 06:05:00,
2013-06-08 02:20:00,52.8,52.0,29.66,NNE,27,10.0,-999.0,97,-99.99,,,0.36,weatherlink.com 1.10,2013-06-08 06:20:00,
2013-06-08 02:35:00,52.7,52.0,29.65,NNW,340,6.0,-999.0,97,-99.99,,,0.38,weatherlink.com 1.10,2013-06-08 06:35:00,
2013-06-08 02:50:00,52.8,52.0,29.65,NE,40,0.0,-999.0,96,-99.99,,,0.44,weatherlink.com 1.10,2013-06-08 06:50:00,
2013-06-08 03:05:00,52.7,52.0,29.62,ESE,104,5.0,-999.0,96,-99.99,,,0.55,weatherlink.com 1.10,2013-06-08 07:05:00,
2013-06-08 03:20:00,52.6,52.0,29.61,ENE,77,3.0,-999.0,97,-99.99,,,0.58,weatherlink.com 1.10,2013-06-08 07:20:00,
2013-06-08 03:35:00,52.6,52.0,29.61,NNE,16,0.0,-999.0,97,-99.99,,,0.58,weatherlink.com 1.10,2013-06-08 07:35:00,
2013-06-08 03:50:00,52.7,52.0,29.61,NNE,17,0.0,-999.0,97,-99.99,,,0.62,weatherlink.com 1.10,2013-06-08 07:50:00,
2013-06-08 04:05:00,52.8,52.0,29.59,ENE,67,2.0,-999.0,97,-99.99,,,0.66,weatherlink.com 1.10,2013-06-08 08:05:00,
2013-06-08 04:20:00,52.9,52.0,29.59,North,360,0.0,-999.0,97,-99.99,,,0.66,weatherlink.com 1.10,2013-06-08 08:20:00,
2013-06-08 04:35:00,53.0,52.0,29.58,NNE,30,3.0,-999.0,97,-99.99,,,0.66,weatherlink.com 1.10,2013-06-08 08:35:00,
2013-06-08 04:50:00,53.1,52.0,29.58,NE,55,3.0,-999.0,97,-99.99,,,0.66,weatherlink.com 1.10,2013-06-08 08:50:00,
2013-06-08 05:05:00,53.1,52.0,29.56,ENE,57,1.0,-999.0,97,-99.99,,,0.67,weatherlink.com 1.10,2013-06-08 09:05:00,
2013-06-08 05:20:00,53.1,52.0,29.56,NNE,24,0.0,-999.0,97,-99.99,,,0.68,weatherlink.com 1.10,2013-06-08 09:20:00,
2013-06-08 05:35:00,53.2,52.0,29.55,NNE,17,8.0,-999.0,97,-99.99,,,0.68,weatherlink.com 1.10,2013-06-08 09:35:00,
2013-06-08 05:50:00,53.3,53.0,29.55,East,94,5.0,-999.0,97,-99.99,,,0.68,weatherlink.com 1.10,2013-06-08 09:50:00,
2013-06-08 06:05:00,53.5,53.0,29.55,NE,50,1.0,-999.0,97,-99.99,,,0.68,weatherlink.com 1.10,2013-06-08 10:05:00,
2013-06-08 06:20:00,53.6,53.0,29.53,East,84,1.0,-999.0,97,-99.99,,,0.68,weatherlink.com 1.10,2013-06-08 10:20:00,
2013-06-08 06:35:00,53.7,53.0,29.53,NE,43,0.0,-999.0,97,-99.99,,,0.68,weatherlink.com 1.10,2013-06-08 10:35:00,
2013-06-08 06:50:00,53.8,53.0,29.52,East,80,3.0,-999.0,97,-99.99,,,0.68,weatherlink.com 1.10,2013-06-08 10:50:00,
2013-06-08 07:05:00,53.9,53.0,29.52,NNW,344,3.0,-999.0,97,-99.99,,,0.68,weatherlink.com 1.10,2013-06-08 11:05:00,
2013-06-08 07:20:00,54.2,53.0,29.52,NNE,28,9.0,-999.0,97,-99.99,,,0.69,weatherlink.com 1.10,2013-06-08 11:20:00,
2013-06-08 07:35:00,54.4,54.0,29.52,ENE,63,4.0,-999.0,97,-99.99,,,0.69,weatherlink.com 1.10,2013-06-08 11:35:00,
2013-06-08 07:50:00,54.6,54.0,29.52,WNW,282,2.0,-999.0,97,-99.99,,,0.70,weatherlink.com 1.10,2013-06-08 11:50:00,
2013-06-08 08:05:00,54.9,54.0,29.52,NW,315,2.0,-999.0,97,-99.99,,,0.70,weatherlink.com 1.10,2013-06-08 12:05:00,
2013-06-08 08:20:00,55.1,54.0,29.52,NE,55,0.0,-999.0,97,-99.99,,,0.70,weatherlink.com 1.10,2013-06-08 12:20:00,
2013-06-08 08:35:00,55.5,55.0,29.52,WNW,301,1.0,-999.0,97,-99.99,,,0.70,weatherlink.com 1.10,2013-06-08 12:35:00,
2013-06-08 08:50:00,56.0,55.0,29.53,NE,34,4.0,-999.0,97,-99.99,,,0.70,weatherlink.com 1.10,2013-06-08 12:50:00,
2013-06-08 09:05:00,56.3,56.0,29.54,NNE,26,0.0,-999.0,97,-99.99,,,0.70,weatherlink.com 1.10,2013-06-08 13:05:00,
2013-06-08 09:20:00,56.5,55.0,29.56,NNE,33,2.0,-999.0,96,-99.99,,,0.70,weatherlink.com 1.10,2013-06-08 13:20:00,
2013-06-08 09:35:00,56.8,56.0,29.57,NE,56,2.0,-999.0,96,-99.99,,,0.70,weatherlink.com 1.10,2013-06-08 13:35:00,
2013-06-08 09:50:00,57.0,56.0,29.58,NNE,30,1.0,-999.0,96,-99.99,,,0.70,weatherlink.com 1.10,2013-06-08 13:50:00,
2013-06-08 10:05:00,57.8,57.0,29.58,NNW,332,3.0,-999.0,96,-99.99,,,0.70,weatherlink.com 1.10,2013-06-08 14:05:00,
2013-06-08 10:20:00,58.8,57.0,29.59,WNW,292,2.0,-999.0,94,-99.99,,,0.70,weatherlink.com 1.10,2013-06-08 14:20:00,
2013-06-08 10:35:00,60.1,58.0,29.60,NW,305,4.0,-999.0,91,-99.99,,,0.70,weatherlink.com 1.10,2013-06-08 14:35:00,
2013-06-08 10:50:00,61.1,58.0,29.61,NNE,30,7.0,-999.0,90,-99.99,,,0.70,weatherlink.com 1.10,2013-06-08 14:50:00,
2013-06-08 11:05:00,62.9,59.0,29.61,NW,311,0.0,-999.0,87,-99.99,,,0.70,weatherlink.com 1.10,2013-06-08 15:05:00,
2013-06-08 11:20:00,63.8,60.0,29.61,North,11,0.0,-999.0,87,-99.99,,,0.70,weatherlink.com 1.10,2013-06-08 15:20:00,
2013-06-08 11:35:00,65.4,61.0,29.61,South,186,0.0,-999.0,85,-99.99,,,0.70,weatherlink.com 1.10,2013-06-08 15:35:00,
2013-06-08 11:50:00,67.0,60.0,29.63,SSW,205,0.0,-999.0,79,-99.99,,,0.70,weatherlink.com 1.10,2013-06-08 15:50:00,
2013-06-08 12:05:00,67.6,61.0,29.64,SW,229,0.0,-999.0,79,-99.99,,,0.70,weatherlink.com 1.10,2013-06-08 16:05:00,
2013-06-08 12:20:00,68.4,62.0,29.64,NNE,19,0.0,-999.0,79,-99.99,,,0.70,weatherlink.com 1.10,2013-06-08 16:20:00,
2013-06-08 12:35:00,68.3,62.0,29.65,NNE,13,0.0,-999.0,80,-99.99,,,0.70,weatherlink.com 1.10,2013-06-08 16:35:00,
2013-06-08 12:50:00,69.4,63.0,29.65,South,186,0.0,-999.0,79,-99.99,,,0.70,weatherlink.com 1.10,2013-06-08 16:50:00,
2013-06-08 13:05:00,71.3,64.0,29.65,SW,219,0.0,-999.0,77,-99.99,,,0.70,weatherlink.com 1.10,2013-06-08 17:05:00,
2013-06-08 13:20:00,72.6,64.0,29.66,NNW,327,0.0,-999.0,74,-99.99,,,0.70,weatherlink.com 1.10,2013-06-08 17:20:00,
2013-06-08 13:35:00,72.6,63.0,29.66,SE,130,0.0,-999.0,72,-99.99,,,0.70,weatherlink.com 1.10,2013-06-08 17:35:00,
2013-06-08 13:50:00,73.4,63.0,29.67,South,184,0.0,-999.0,71,-99.99,,,0.70,weatherlink.com 1.10,2013-06-08 17:50:00,
2013-06-08 14:05:00,74.2,64.0,29.67,NNE,19,0.0,-999.0,71,-99.99,,,0.70,weatherlink.com 1.10,2013-06-08 18:05:00,
2013-06-08 14:20:00,75.0,65.0,29.68,WSW,237,0.0,-999.0,70,-99.99,,,0.70,weatherlink.com 1.10,2013-06-08 18:20:00,
2013-06-08 14:35:00,75.6,63.0,29.68,SW,226,0.0,-999.0,66,-99.99,,,0.70,weatherlink.com 1.10,2013-06-08 18:35:00,
2013-06-08 14:50:00,75.2,63.0,29.69,WSW,254,0.0,-999.0,67,-99.99,,,0.70,weatherlink.com 1.10,2013-06-08 18:50:00,
2013-06-08 15:05:00,75.6,63.0,29.69,North,360,0.0,-999.0,66,-99.99,,,0.70,weatherlink.com 1.10,2013-06-08 19:05:00,
2013-06-08 15:20:00,74.9,63.0,29.70,North,360,0.0,-999.0,67,-99.99,,,0.70,weatherlink.com 1.10,2013-06-08 19:20:00,
2013-06-08 15:35:00,75.3,64.0,29.69,North,360,0.0,-999.0,68,-99.99,,,0.70,weatherlink.com 1.10,2013-06-08 19:35:00,
2013-06-08 15:50:00,76.0,64.0,29.70,ENE,65,0.0,-999.0,67,-99.99,,,0.70,weatherlink.com 1.10,2013-06-08 19:50:00,
2013-06-08 16:05:00,75.6,65.0,29.71,NNW,339,0.0,-999.0,69,-99.99,,,0.70,weatherlink.com 1.10,2013-06-08 20:05:00,
2013-06-08 16:20:00,74.6,65.0,29.71,NNW,339,0.0,-999.0,71,-99.99,,,0.70,weatherlink.com 1.10,2013-06-08 20:20:00,
2013-06-08 16:35:00,75.9,64.0,29.71,NNW,336,0.0,-999.0,67,-99.99,,,0.70,weatherlink.com 1.10,2013-06-08 20:35:00,
2013-06-08 16:50:00,76.8,64.0,29.71,SSW,195,0.0,-999.0,64,-99.99,,,0.70,weatherlink.com 1.10,2013-06-08 20:50:00,
2013-06-08 17:05:00,77.0,64.0,29.72,NE,52,0.0,-999.0,65,-99.99,,,0.70,weatherlink.com 1.10,2013-06-08 21:05:00,
2013-06-08 17:20:00,75.6,64.0,29.73,ENE,65,0.0,-999.0,67,-99.99,,,0.70,weatherlink.com 1.10,2013-06-08 21:20:00,
2013-06-08 17:35:00,74.9,64.0,29.74,North,360,0.0,-999.0,69,-99.99,,,0.70,weatherlink.com 1.10,2013-06-08 21:35:00,
2013-06-08 17:50:00,74.2,63.0,29.75,SSE,163,0.0,-999.0,69,-99.99,,,0.70,weatherlink.com 1.10,2013-06-08 21:50:00,
2013-06-08 18:05:00,73.2,63.0,29.76,NW,314,0.0,-999.0,71,-99.99,,,0.70,weatherlink.com 1.10,2013-06-08 22:05:00,
2013-06-08 18:20:00,72.4,63.0,29.76,SSW,196,0.0,-999.0,71,-99.99,,,0.70,weatherlink.com 1.10,2013-06-08 22:20:00,
2013-06-08 18:35:00,72.1,62.0,29.76,SW,230,0.0,-999.0,71,-99.99,,,0.70,weatherlink.com 1.10,2013-06-08 22:35:00,
2013-06-08 18:50:00,72.1,62.0,29.78,NNE,16,0.0,-999.0,71,-99.99,,,0.70,weatherlink.com 1.10,2013-06-08 22:50:00,
2013-06-08 19:05:00,71.4,62.0,29.79,NE,44,0.0,-999.0,71,-99.99,,,0.70,weatherlink.com 1.10,2013-06-08 23:05:00,
2013-06-08 19:20:00,70.8,61.0,29.78,North,5,0.0,-999.0,72,-99.99,,,0.70,weatherlink.com 1.10,2013-06-08 23:20:00,
2013-06-08 19:35:00,70.0,60.0,29.80,NW,314,0.0,-999.0,71,-99.99,,,0.70,weatherlink.com 1.10,2013-06-08 23:35:00,
2013-06-08 19:50:00,69.5,61.0,29.81,NNE,28,0.0,-999.0,73,-99.99,,,0.70,weatherlink.com 1.10,2013-06-08 23:50:00,
2013-06-08 20:05:00,68.7,61.0,29.81,NNE,28,0.0,-999.0,75,-99.99,,,0.70,weatherlink.com 1.10,2013-06-09 00:05:00,
2013-06-08 20:20:00,67.8,61.0,29.80,NNE,31,0.0,-999.0,78,-99.99,,,0.70,weatherlink.com 1.10,2013-06-09 00:20:00,
2013-06-08 20:35:00,67.3,60.0,29.80,NNE,31,0.0,-999.0,78,-99.99,,,0.70,weatherlink.com 1.10,2013-06-09 00:35:00,
2013-06-08 20:50:00,66.6,61.0,29.81,WNW,299,0.0,-999.0,81,-99.99,,,0.70,weatherlink.com 1.10,2013-06-09 00:50:00,
2013-06-08 21:05:00,66.3,60.0,29.81,WNW,290,0.0,-999.0,81,-99.99,,,0.70,weatherlink.com 1.10,2013-06-09 01:05:00,
2013-06-08 21:20:00,65.8,60.0,29.82,WNW,290,0.0,-999.0,82,-99.99,,,0.70,weatherlink.com 1.10,2013-06-09 01:20:00,
2013-06-08 21:35:00,65.2,60.0,29.83,WNW,290,0.0,-999.0,83,-99.99,,,0.70,weatherlink.com 1.10,2013-06-09 01:35:00,
2013-06-08 21:50:00,64.8,60.0,29.84,WNW,290,0.0,-999.0,84,-99.99,,,0.70,weatherlink.com 1.10,2013-06-09 01:50:00,
2013-06-08 22:05:00,64.6,60.0,29.85,WNW,288,0.0,-999.0,85,-99.99,,,0.70,weatherlink.com 1.10,2013-06-09 02:05:00,
2013-06-08 22:20:00,64.7,61.0,29.85,WNW,285,0.0,-999.0,86,-99.99,,,0.70,weatherlink.com 1.10,2013-06-09 02:20:00,
2013-06-08 22:35:00,64.1,60.0,29.85,WNW,285,0.0,-999.0,86,-99.99,,,0.70,weatherlink.com 1.10,2013-06-09 02:35:00,
2013-06-08 22:50:00,63.4,60.0,29.85,WNW,285,0.0,-999.0,88,-99.99,,,0.70,weatherlink.com 1.10,2013-06-09 02:50:00,
2013-06-08 23:05:00,62.7,60.0,29.87,WNW,285,0.0,-999.0,89,-99.99,,,0.70,weatherlink.com 1.10,2013-06-09 03:05:00,
2013-06-08 23:20:00,62.1,59.0,29.86,WNW,285,0.0,-999.0,89,-99.99,,,0.70,weatherlink.com 1.10,2013-06-09 03:20:00,
2013-06-08 23:35:00,61.9,59.0,29.87,NNW,336,0.0,-999.0,90,-99.99,,,0.70,weatherlink.com 1.10,2013-06-09 03:35:00,
2013-06-08 23:50:00,61.6,59.0,29.87,NNW,336,0.0,-999.0,91,-99.99,,,0.70,weatherlink.com 1.10,2013-06-09 03:50:00,